Terminal Aerodrome Forecast
Issued by NWS Newport/Morehead City, NC

Home | Current Version | Previous Version | Graphics & Text | Print | Product List | Glossary On
Versions: 1 2 3 4 5 6 7 8 9 10 11 12 13 14 15 16 17
000
FTUS42 KMHX 271737
TAFEWN
TAF
KEWN 271737Z 2718/2818 36008KT P6SM SCT250
     FM280100 02005KT P6SM SCT015
     FM280800 02008KT P6SM SCT250
     FM281600 02012KT P6SM BKN150=

USA.gov is the U.S. government's official web portal to all federal, state and local government web resources and services.